sensor_id;sensor_type;location;lat;lon;timestamp;P1;durP1;ratioP1;P2;durP2;ratioP2
72198;SDS011;60103;51.014;16.992;2023-04-22T00:02:16;18.50;;;8.70;;
72198;SDS011;60103;51.014;16.992;2023-04-22T00:04:46;21.30;;;9.30;;
72198;SDS011;60103;51.014;16.992;2023-04-22T00:07:17;20.50;;;9.10;;
72198;SDS011;60103;51.014;16.992;2023-04-22T00:09:46;17.30;;;7.30;;
72198;SDS011;60103;51.014;16.992;2023-04-22T00:12:15;19.80;;;9.10;;
72198;SDS011;60103;51.014;16.992;2023-04-22T00:14:44;20.30;;;8.80;;
72198;SDS011;60103;51.014;16.992;2023-04-22T00:17:12;18.60;;;8.70;;
72198;SDS011;60103;51.014;16.992;2023-04-22T00:19:42;18.20;;;9.00;;
72198;SDS011;60103;51.014;16.992;2023-04-22T00:22:11;19.70;;;9.50;;
72198;SDS011;60103;51.014;16.992;2023-04-22T00:24:40;20.80;;;9.40;;
72198;SDS011;60103;51.014;16.992;2023-04-22T00:27:09;20.30;;;8.90;;
72198;SDS011;60103;51.014;16.992;2023-04-22T00:29:38;20.00;;;8.90;;
72198;SDS011;60103;51.014;16.992;2023-04-22T00:32:07;20.10;;;9.30;;
72198;SDS011;60103;51.014;16.992;2023-04-22T00:34:36;21.70;;;9.90;;
72198;SDS011;60103;51.014;16.992;2023-04-22T00:37:05;20.70;;;9.10;;
72198;SDS011;60103;51.014;16.992;2023-04-22T00:39:35;20.70;;;10.00;;
72198;SDS011;60103;51.014;16.992;2023-04-22T00:42:07;17.80;;;8.90;;
72198;SDS011;60103;51.014;16.992;2023-04-22T00:44:36;17.30;;;7.80;;
72198;SDS011;60103;51.014;16.992;2023-04-22T00:47:05;20.90;;;9.40;;
72198;SDS011;60103;51.014;16.992;2023-04-22T00:49:34;20.40;;;9.40;;
72198;SDS011;60103;51.014;16.992;2023-04-22T00:52:04;19.70;;;9.10;;
72198;SDS011;60103;51.014;16.992;2023-04-22T00:54:34;22.50;;;9.90;;
72198;SDS011;60103;51.014;16.992;2023-04-22T00:57:03;23.30;;;9.80;;
72198;SDS011;60103;51.014;16.992;2023-04-22T00:59:34;18.60;;;8.70;;
72198;SDS011;60103;51.014;16.992;2023-04-22T01:02:04;22.50;;;9.50;;
72198;SDS011;60103;51.014;16.992;2023-04-22T01:04:35;21.70;;;9.20;;
72198;SDS011;60103;51.014;16.992;2023-04-22T01:07:04;21.30;;;9.40;;
72198;SDS011;60103;51.014;16.992;2023-04-22T01:09:34;20.80;;;9.20;;
72198;SDS011;60103;51.014;16.992;2023-04-22T01:12:03;21.30;;;9.00;;
72198;SDS011;60103;51.014;16.992;2023-04-22T01:14:33;19.70;;;9.20;;
72198;SDS011;60103;51.014;16.992;2023-04-22T01:17:02;18.90;;;9.00;;
72198;SDS011;60103;51.014;16.992;2023-04-22T01:19:32;22.10;;;10.10;;
72198;SDS011;60103;51.014;16.992;2023-04-22T01:22:00;21.20;;;10.00;;
72198;SDS011;60103;51.014;16.992;2023-04-22T01:24:30;23.30;;;11.20;;
72198;SDS011;60103;51.014;16.992;2023-04-22T01:27:01;18.00;;;8.40;;
72198;SDS011;60103;51.014;16.992;2023-04-22T01:29:30;21.00;;;9.90;;
72198;SDS011;60103;51.014;16.992;2023-04-22T01:32:02;23.40;;;9.90;;
72198;SDS011;60103;51.014;16.992;2023-04-22T01:34:31;24.80;;;10.90;;
72198;SDS011;60103;51.014;16.992;2023-04-22T01:37:00;22.60;;;11.60;;
72198;SDS011;60103;51.014;16.992;2023-04-22T01:39:29;22.70;;;10.30;;
72198;SDS011;60103;51.014;16.992;2023-04-22T01:41:58;24.90;;;11.40;;
72198;SDS011;60103;51.014;16.992;2023-04-22T01:44:26;26.30;;;12.00;;
72198;SDS011;60103;51.014;16.992;2023-04-22T01:46:55;21.90;;;10.30;;
72198;SDS011;60103;51.014;16.992;2023-04-22T01:49:24;23.60;;;10.90;;
72198;SDS011;60103;51.014;16.992;2023-04-22T01:51:53;24.00;;;11.30;;
72198;SDS011;60103;51.014;16.992;2023-04-22T01:54:22;25.40;;;12.10;;
72198;SDS011;60103;51.014;16.992;2023-04-22T01:56:52;24.20;;;11.20;;
72198;SDS011;60103;51.014;16.992;2023-04-22T01:59:22;23.40;;;11.60;;
72198;SDS011;60103;51.014;16.992;2023-04-22T02:01:50;24.00;;;10.60;;
72198;SDS011;60103;51.014;16.992;2023-04-22T02:04:20;23.40;;;10.90;;
72198;SDS011;60103;51.014;16.992;2023-04-22T02:06:50;20.90;;;10.70;;
72198;SDS011;60103;51.014;16.992;2023-04-22T02:09:19;26.30;;;11.10;;
72198;SDS011;60103;51.014;16.992;2023-04-22T02:11:49;22.30;;;11.10;;
72198;SDS011;60103;51.014;16.992;2023-04-22T02:14:20;24.00;;;10.60;;
72198;SDS011;60103;51.014;16.992;2023-04-22T02:16:50;21.60;;;9.90;;
72198;SDS011;60103;51.014;16.992;2023-04-22T02:19:19;21.30;;;10.10;;
72198;SDS011;60103;51.014;16.992;2023-04-22T02:21:47;23.90;;;10.70;;
72198;SDS011;60103;51.014;16.992;2023-04-22T02:24:16;24.60;;;11.50;;
72198;SDS011;60103;51.014;16.992;2023-04-22T02:26:45;22.50;;;10.50;;
72198;SDS011;60103;51.014;16.992;2023-04-22T02:29:14;21.90;;;10.50;;
72198;SDS011;60103;51.014;16.992;2023-04-22T02:31:47;25.40;;;11.40;;
72198;SDS011;60103;51.014;16.992;2023-04-22T02:34:16;21.30;;;9.70;;
72198;SDS011;60103;51.014;16.992;2023-04-22T02:36:45;24.10;;;10.50;;
72198;SDS011;60103;51.014;16.992;2023-04-22T02:39:14;21.40;;;10.30;;
72198;SDS011;60103;51.014;16.992;2023-04-22T02:41:43;24.30;;;10.10;;
72198;SDS011;60103;51.014;16.992;2023-04-22T02:44:13;20.30;;;9.80;;
72198;SDS011;60103;51.014;16.992;2023-04-22T02:46:42;23.20;;;9.80;;
72198;SDS011;60103;51.014;16.992;2023-04-22T02:49:11;22.30;;;10.20;;
72198;SDS011;60103;51.014;16.992;2023-04-22T02:51:40;23.30;;;9.70;;
72198;SDS011;60103;51.014;16.992;2023-04-22T02:54:09;22.00;;;9.70;;
72198;SDS011;60103;51.014;16.992;2023-04-22T02:56:38;22.50;;;10.60;;
72198;SDS011;60103;51.014;16.992;2023-04-22T02:59:06;20.70;;;8.80;;
72198;SDS011;60103;51.014;16.992;2023-04-22T03:01:35;20.50;;;9.60;;
72198;SDS011;60103;51.014;16.992;2023-04-22T03:04:05;21.90;;;10.40;;
72198;SDS011;60103;51.014;16.992;2023-04-22T03:06:34;23.00;;;10.20;;
72198;SDS011;60103;51.014;16.992;2023-04-22T03:09:03;19.30;;;8.70;;
72198;SDS011;60103;51.014;16.992;2023-04-22T03:11:32;24.00;;;9.40;;
72198;SDS011;60103;51.014;16.992;2023-04-22T03:14:01;21.50;;;9.90;;
72198;SDS011;60103;51.014;16.992;2023-04-22T03:16:29;24.00;;;11.00;;
72198;SDS011;60103;51.014;16.992;2023-04-22T03:19:02;22.60;;;10.00;;
72198;SDS011;60103;51.014;16.992;2023-04-22T03:21:31;24.60;;;10.40;;
72198;SDS011;60103;51.014;16.992;2023-04-22T03:24:01;21.10;;;9.60;;
72198;SDS011;60103;51.014;16.992;2023-04-22T03:26:31;25.60;;;10.80;;
72198;SDS011;60103;51.014;16.992;2023-04-22T03:29:00;26.10;;;11.90;;
72198;SDS011;60103;51.014;16.992;2023-04-22T03:31:29;26.10;;;12.30;;
72198;SDS011;60103;51.014;16.992;2023-04-22T03:33:58;25.40;;;11.90;;
72198;SDS011;60103;51.014;16.992;2023-04-22T03:36:28;23.80;;;11.30;;
72198;SDS011;60103;51.014;16.992;2023-04-22T03:38:58;27.20;;;11.20;;
72198;SDS011;60103;51.014;16.992;2023-04-22T03:41:28;22.50;;;10.90;;
72198;SDS011;60103;51.014;16.992;2023-04-22T03:43:57;20.70;;;9.20;;
72198;SDS011;60103;51.014;16.992;2023-04-22T03:46:29;18.00;;;8.40;;
72198;SDS011;60103;51.014;16.992;2023-04-22T03:49:06;19.10;;;9.10;;
72198;SDS011;60103;51.014;16.992;2023-04-22T03:51:35;22.50;;;9.60;;
72198;SDS011;60103;51.014;16.992;2023-04-22T03:54:08;20.50;;;9.30;;
72198;SDS011;60103;51.014;16.992;2023-04-22T03:56:40;19.90;;;9.50;;
72198;SDS011;60103;51.014;16.992;2023-04-22T03:59:09;20.50;;;9.00;;
72198;SDS011;60103;51.014;16.992;2023-04-22T04:01:39;19.20;;;8.30;;
72198;SDS011;60103;51.014;16.992;2023-04-22T04:04:08;18.10;;;8.90;;
72198;SDS011;60103;51.014;16.992;2023-04-22T04:06:45;20.20;;;8.80;;
72198;SDS011;60103;51.014;16.992;2023-04-22T04:09:14;19.00;;;8.70;;
72198;SDS011;60103;51.014;16.992;2023-04-22T04:11:45;16.00;;;7.90;;
72198;SDS011;60103;51.014;16.992;2023-04-22T04:14:14;16.50;;;7.70;;
72198;SDS011;60103;51.014;16.992;2023-04-22T04:16:47;17.30;;;7.70;;
72198;SDS011;60103;51.014;16.992;2023-04-22T04:19:26;16.00;;;6.80;;
72198;SDS011;60103;51.014;16.992;2023-04-22T04:21:55;17.30;;;7.40;;
72198;SDS011;60103;51.014;16.992;2023-04-22T04:24:25;15.10;;;6.80;;
72198;SDS011;60103;51.014;16.992;2023-04-22T04:26:59;17.30;;;8.00;;
72198;SDS011;60103;51.014;16.992;2023-04-22T04:29:33;20.50;;;7.70;;
72198;SDS011;60103;51.014;16.992;2023-04-22T04:32:07;17.50;;;7.30;;
72198;SDS011;60103;51.014;16.992;2023-04-22T04:34:37;16.80;;;7.20;;
72198;SDS011;60103;51.014;16.992;2023-04-22T04:37:06;17.40;;;7.60;;
72198;SDS011;60103;51.014;16.992;2023-04-22T04:39:43;19.50;;;7.60;;
72198;SDS011;60103;51.014;16.992;2023-04-22T04:42:14;18.60;;;8.20;;
72198;SDS011;60103;51.014;16.992;2023-04-22T04:44:49;19.10;;;7.70;;
72198;SDS011;60103;51.014;16.992;2023-04-22T04:47:19;18.00;;;8.00;;
72198;SDS011;60103;51.014;16.992;2023-04-22T04:49:52;19.30;;;8.30;;
72198;SDS011;60103;51.014;16.992;2023-04-22T04:52:22;17.80;;;7.70;;
72198;SDS011;60103;51.014;16.992;2023-04-22T04:54:51;17.50;;;7.90;;
72198;SDS011;60103;51.014;16.992;2023-04-22T04:57:20;17.90;;;8.20;;
72198;SDS011;60103;51.014;16.992;2023-04-22T04:59:49;17.10;;;7.70;;
72198;SDS011;60103;51.014;16.992;2023-04-22T05:02:19;19.20;;;8.30;;
72198;SDS011;60103;51.014;16.992;2023-04-22T05:04:49;17.60;;;8.20;;
72198;SDS011;60103;51.014;16.992;2023-04-22T05:07:18;17.20;;;8.00;;
72198;SDS011;60103;51.014;16.992;2023-04-22T05:09:47;19.30;;;9.20;;
72198;SDS011;60103;51.014;16.992;2023-04-22T05:12:17;19.20;;;8.50;;
72198;SDS011;60103;51.014;16.992;2023-04-22T05:14:46;19.20;;;9.20;;
72198;SDS011;60103;51.014;16.992;2023-04-22T05:17:15;19.60;;;9.70;;
72198;SDS011;60103;51.014;16.992;2023-04-22T05:19:44;20.30;;;13.70;;
72198;SDS011;60103;51.014;16.992;2023-04-22T05:22:13;19.60;;;9.80;;
72198;SDS011;60103;51.014;16.992;2023-04-22T05:24:43;20.10;;;9.80;;
72198;SDS011;60103;51.014;16.992;2023-04-22T05:27:12;19.70;;;9.50;;
72198;SDS011;60103;51.014;16.992;2023-04-22T05:29:41;20.10;;;9.90;;
72198;SDS011;60103;51.014;16.992;2023-04-22T05:32:10;21.90;;;10.00;;
72198;SDS011;60103;51.014;16.992;2023-04-22T05:34:40;21.10;;;10.40;;
72198;SDS011;60103;51.014;16.992;2023-04-22T05:37:09;19.90;;;11.00;;
72198;SDS011;60103;51.014;16.992;2023-04-22T05:39:40;23.40;;;11.10;;
72198;SDS011;60103;51.014;16.992;2023-04-22T05:42:09;22.90;;;11.50;;
72198;SDS011;60103;51.014;16.992;2023-04-22T05:44:38;21.90;;;11.30;;
72198;SDS011;60103;51.014;16.992;2023-04-22T05:47:08;21.70;;;10.70;;
72198;SDS011;60103;51.014;16.992;2023-04-22T05:49:37;21.70;;;10.90;;
72198;SDS011;60103;51.014;16.992;2023-04-22T05:52:16;22.30;;;10.60;;
72198;SDS011;60103;51.014;16.992;2023-04-22T05:54:59;19.60;;;10.90;;
72198;SDS011;60103;51.014;16.992;2023-04-22T05:57:27;21.60;;;10.30;;
72198;SDS011;60103;51.014;16.992;2023-04-22T05:59:58;21.30;;;10.40;;
72198;SDS011;60103;51.014;16.992;2023-04-22T06:02:28;22.90;;;11.10;;
72198;SDS011;60103;51.014;16.992;2023-04-22T06:04:57;21.30;;;10.70;;
72198;SDS011;60103;51.014;16.992;2023-04-22T06:07:27;21.80;;;10.30;;
72198;SDS011;60103;51.014;16.992;2023-04-22T06:09:56;20.50;;;10.00;;
72198;SDS011;60103;51.014;16.992;2023-04-22T06:12:32;21.30;;;10.60;;
72198;SDS011;60103;51.014;16.992;2023-04-22T06:15:02;19.70;;;10.60;;
72198;SDS011;60103;51.014;16.992;2023-04-22T06:17:32;17.20;;;9.00;;
72198;SDS011;60103;51.014;16.992;2023-04-22T06:20:01;24.50;;;11.80;;
72198;SDS011;60103;51.014;16.992;2023-04-22T06:22:31;20.40;;;11.00;;
72198;SDS011;60103;51.014;16.992;2023-04-22T06:24:59;21.70;;;10.70;;
72198;SDS011;60103;51.014;16.992;2023-04-22T06:27:28;21.00;;;11.20;;
72198;SDS011;60103;51.014;16.992;2023-04-22T06:29:57;20.60;;;10.90;;
72198;SDS011;60103;51.014;16.992;2023-04-22T06:32:26;20.60;;;10.90;;
72198;SDS011;60103;51.014;16.992;2023-04-22T06:34:55;21.60;;;10.90;;
72198;SDS011;60103;51.014;16.992;2023-04-22T06:37:25;19.70;;;10.70;;
72198;SDS011;60103;51.014;16.992;2023-04-22T06:39:54;20.40;;;10.50;;
72198;SDS011;60103;51.014;16.992;2023-04-22T06:42:46;19.60;;;10.70;;
72198;SDS011;60103;51.014;16.992;2023-04-22T06:45:26;20.10;;;10.80;;
72198;SDS011;60103;51.014;16.992;2023-04-22T06:48:10;20.30;;;9.70;;
72198;SDS011;60103;51.014;16.992;2023-04-22T06:51:02;19.00;;;10.10;;
72198;SDS011;60103;51.014;16.992;2023-04-22T06:53:32;19.80;;;9.90;;
72198;SDS011;60103;51.014;16.992;2023-04-22T06:56:01;21.30;;;10.80;;
72198;SDS011;60103;51.014;16.992;2023-04-22T06:58:31;20.50;;;11.30;;
72198;SDS011;60103;51.014;16.992;2023-04-22T07:01:01;21.90;;;10.50;;
72198;SDS011;60103;51.014;16.992;2023-04-22T07:03:30;20.40;;;10.00;;
72198;SDS011;60103;51.014;16.992;2023-04-22T07:06:06;20.10;;;10.60;;
72198;SDS011;60103;51.014;16.992;2023-04-22T07:08:35;20.70;;;10.20;;
72198;SDS011;60103;51.014;16.992;2023-04-22T07:11:04;21.70;;;11.20;;
72198;SDS011;60103;51.014;16.992;2023-04-22T07:13:36;19.00;;;10.70;;
72198;SDS011;60103;51.014;16.992;2023-04-22T07:16:05;20.40;;;11.00;;
72198;SDS011;60103;51.014;16.992;2023-04-22T07:18:34;21.00;;;11.10;;
72198;SDS011;60103;51.014;16.992;2023-04-22T07:21:03;21.00;;;10.30;;
72198;SDS011;60103;51.014;16.992;2023-04-22T07:23:32;22.60;;;12.40;;
72198;SDS011;60103;51.014;16.992;2023-04-22T07:26:01;26.80;;;10.20;;
72198;SDS011;60103;51.014;16.992;2023-04-22T07:28:30;19.70;;;11.10;;
72198;SDS011;60103;51.014;16.992;2023-04-22T07:30:58;21.10;;;11.50;;
72198;SDS011;60103;51.014;16.992;2023-04-22T07:33:27;19.70;;;11.30;;
72198;SDS011;60103;51.014;16.992;2023-04-22T07:35:56;23.00;;;11.10;;
72198;SDS011;60103;51.014;16.992;2023-04-22T07:38:25;21.60;;;10.70;;
72198;SDS011;60103;51.014;16.992;2023-04-22T07:40:54;20.70;;;10.10;;
72198;SDS011;60103;51.014;16.992;2023-04-22T07:43:22;19.20;;;9.70;;
72198;SDS011;60103;51.014;16.992;2023-04-22T07:45:51;17.40;;;9.80;;
72198;SDS011;60103;51.014;16.992;2023-04-22T07:48:20;18.50;;;10.30;;
72198;SDS011;60103;51.014;16.992;2023-04-22T07:50:49;18.50;;;9.60;;
72198;SDS011;60103;51.014;16.992;2023-04-22T07:53:18;17.20;;;9.60;;
72198;SDS011;60103;51.014;16.992;2023-04-22T07:55:47;18.00;;;9.60;;
72198;SDS011;60103;51.014;16.992;2023-04-22T07:58:16;19.90;;;10.70;;
72198;SDS011;60103;51.014;16.992;2023-04-22T08:00:45;17.70;;;9.60;;
72198;SDS011;60103;51.014;16.992;2023-04-22T08:03:14;18.20;;;9.40;;
72198;SDS011;60103;51.014;16.992;2023-04-22T08:05:43;21.30;;;9.90;;
72198;SDS011;60103;51.014;16.992;2023-04-22T08:08:12;19.40;;;10.20;;
72198;SDS011;60103;51.014;16.992;2023-04-22T08:10:41;18.50;;;9.90;;
72198;SDS011;60103;51.014;16.992;2023-04-22T08:13:11;20.60;;;10.50;;
72198;SDS011;60103;51.014;16.992;2023-04-22T08:15:41;16.40;;;9.20;;
72198;SDS011;60103;51.014;16.992;2023-04-22T08:18:10;21.70;;;10.70;;
72198;SDS011;60103;51.014;16.992;2023-04-22T08:20:39;22.50;;;10.60;;
72198;SDS011;60103;51.014;16.992;2023-04-22T08:23:07;17.70;;;9.90;;
72198;SDS011;60103;51.014;16.992;2023-04-22T08:25:37;18.40;;;9.30;;
72198;SDS011;60103;51.014;16.992;2023-04-22T08:28:07;18.60;;;8.80;;
72198;SDS011;60103;51.014;16.992;2023-04-22T08:30:36;18.40;;;9.20;;
72198;SDS011;60103;51.014;16.992;2023-04-22T08:33:05;19.50;;;9.40;;
72198;SDS011;60103;51.014;16.992;2023-04-22T08:35:34;18.10;;;8.80;;
72198;SDS011;60103;51.014;16.992;2023-04-22T08:38:04;15.60;;;9.00;;
72198;SDS011;60103;51.014;16.992;2023-04-22T08:40:34;15.70;;;8.00;;
72198;SDS011;60103;51.014;16.992;2023-04-22T08:43:03;16.90;;;8.30;;
72198;SDS011;60103;51.014;16.992;2023-04-22T08:45:32;15.20;;;7.30;;
72198;SDS011;60103;51.014;16.992;2023-04-22T08:48:03;14.90;;;6.60;;
72198;SDS011;60103;51.014;16.992;2023-04-22T08:50:33;16.30;;;8.10;;
72198;SDS011;60103;51.014;16.992;2023-04-22T08:53:06;16.70;;;7.70;;
72198;SDS011;60103;51.014;16.992;2023-04-22T08:55:35;15.70;;;7.20;;
72198;SDS011;60103;51.014;16.992;2023-04-22T08:58:04;14.80;;;7.90;;
72198;SDS011;60103;51.014;16.992;2023-04-22T09:00:33;12.90;;;6.60;;
72198;SDS011;60103;51.014;16.992;2023-04-22T09:03:02;13.80;;;7.30;;
72198;SDS011;60103;51.014;16.992;2023-04-22T09:05:35;13.50;;;6.40;;
72198;SDS011;60103;51.014;16.992;2023-04-22T09:08:06;13.90;;;6.90;;
72198;SDS011;60103;51.014;16.992;2023-04-22T09:10:35;14.60;;;6.40;;
72198;SDS011;60103;51.014;16.992;2023-04-22T09:13:07;13.20;;;6.20;;
72198;SDS011;60103;51.014;16.992;2023-04-22T09:15:37;12.70;;;5.80;;
72198;SDS011;60103;51.014;16.992;2023-04-22T09:18:08;17.80;;;6.50;;
72198;SDS011;60103;51.014;16.992;2023-04-22T09:20:37;13.60;;;6.70;;
72198;SDS011;60103;51.014;16.992;2023-04-22T09:23:10;14.60;;;7.00;;
72198;SDS011;60103;51.014;16.992;2023-04-22T09:25:40;13.70;;;6.00;;
72198;SDS011;60103;51.014;16.992;2023-04-22T09:28:11;13.50;;;6.50;;
72198;SDS011;60103;51.014;16.992;2023-04-22T09:30:45;14.60;;;6.50;;
72198;SDS011;60103;51.014;16.992;2023-04-22T09:33:15;14.60;;;6.20;;
72198;SDS011;60103;51.014;16.992;2023-04-22T09:35:44;14.20;;;6.00;;
72198;SDS011;60103;51.014;16.992;2023-04-22T09:38:15;14.10;;;6.00;;
72198;SDS011;60103;51.014;16.992;2023-04-22T09:40:46;11.40;;;5.60;;
72198;SDS011;60103;51.014;16.992;2023-04-22T09:43:19;13.90;;;6.80;;
72198;SDS011;60103;51.014;16.992;2023-04-22T09:45:50;11.90;;;5.30;;
72198;SDS011;60103;51.014;16.992;2023-04-22T09:48:18;12.20;;;5.60;;
72198;SDS011;60103;51.014;16.992;2023-04-22T09:50:49;13.20;;;5.90;;
72198;SDS011;60103;51.014;16.992;2023-04-22T09:53:20;12.80;;;5.20;;
72198;SDS011;60103;51.014;16.992;2023-04-22T09:55:51;12.40;;;4.50;;
72198;SDS011;60103;51.014;16.992;2023-04-22T09:58:22;9.50;;;4.30;;
72198;SDS011;60103;51.014;16.992;2023-04-22T10:00:57;11.00;;;4.50;;
72198;SDS011;60103;51.014;16.992;2023-04-22T10:03:26;10.70;;;5.20;;
72198;SDS011;60103;51.014;16.992;2023-04-22T10:05:56;10.80;;;4.70;;
72198;SDS011;60103;51.014;16.992;2023-04-22T10:08:28;10.60;;;5.30;;
72198;SDS011;60103;51.014;16.992;2023-04-22T10:10:58;11.10;;;5.50;;
72198;SDS011;60103;51.014;16.992;2023-04-22T10:13:30;11.40;;;4.80;;
72198;SDS011;60103;51.014;16.992;2023-04-22T10:16:01;9.20;;;3.90;;
72198;SDS011;60103;51.014;16.992;2023-04-22T10:18:32;9.50;;;3.60;;
72198;SDS011;60103;51.014;16.992;2023-04-22T10:21:01;9.60;;;3.60;;
72198;SDS011;60103;51.014;16.992;2023-04-22T10:23:32;9.50;;;3.50;;
72198;SDS011;60103;51.014;16.992;2023-04-22T10:26:03;9.00;;;4.10;;
72198;SDS011;60103;51.014;16.992;2023-04-22T10:28:33;9.50;;;3.90;;
72198;SDS011;60103;51.014;16.992;2023-04-22T10:31:13;8.60;;;3.40;;
72198;SDS011;60103;51.014;16.992;2023-04-22T10:33:58;9.50;;;3.90;;
72198;SDS011;60103;51.014;16.992;2023-04-22T10:39:34;10.20;;;4.10;;
72198;SDS011;60103;51.014;16.992;2023-04-22T10:44:45;13.30;;;4.70;;
72198;SDS011;60103;51.014;16.992;2023-04-22T10:47:28;10.70;;;4.20;;
72198;SDS011;60103;51.014;16.992;2023-04-22T10:50:12;9.40;;;3.60;;
72198;SDS011;60103;51.014;16.992;2023-04-22T10:52:56;9.80;;;4.20;;
72198;SDS011;60103;51.014;16.992;2023-04-22T10:55:28;10.30;;;4.30;;
72198;SDS011;60103;51.014;16.992;2023-04-22T10:58:22;8.50;;;3.50;;
72198;SDS011;60103;51.014;16.992;2023-04-22T11:00:52;9.00;;;4.30;;
72198;SDS011;60103;51.014;16.992;2023-04-22T11:03:27;11.30;;;4.40;;
72198;SDS011;60103;51.014;16.992;2023-04-22T11:06:12;10.00;;;3.90;;
72198;SDS011;60103;51.014;16.992;2023-04-22T11:08:45;10.40;;;4.30;;
72198;SDS011;60103;51.014;16.992;2023-04-22T11:11:16;8.90;;;4.10;;
72198;SDS011;60103;51.014;16.992;2023-04-22T11:13:47;9.60;;;4.00;;
72198;SDS011;60103;51.014;16.992;2023-04-22T11:16:22;9.00;;;4.20;;
72198;SDS011;60103;51.014;16.992;2023-04-22T11:18:54;9.10;;;3.40;;
72198;SDS011;60103;51.014;16.992;2023-04-22T11:21:23;11.50;;;4.50;;
72198;SDS011;60103;51.014;16.992;2023-04-22T11:23:52;8.80;;;3.90;;
72198;SDS011;60103;51.014;16.992;2023-04-22T11:26:31;11.20;;;3.80;;
72198;SDS011;60103;51.014;16.992;2023-04-22T11:29:02;9.60;;;4.20;;
72198;SDS011;60103;51.014;16.992;2023-04-22T11:31:31;9.80;;;4.20;;
72198;SDS011;60103;51.014;16.992;2023-04-22T11:34:00;10.00;;;4.20;;
72198;SDS011;60103;51.014;16.992;2023-04-22T11:36:32;9.50;;;4.20;;
72198;SDS011;60103;51.014;16.992;2023-04-22T11:39:01;9.60;;;3.40;;
72198;SDS011;60103;51.014;16.992;2023-04-22T11:41:35;9.20;;;3.90;;
72198;SDS011;60103;51.014;16.992;2023-04-22T11:44:08;10.70;;;4.10;;
72198;SDS011;60103;51.014;16.992;2023-04-22T11:46:39;10.20;;;4.10;;
72198;SDS011;60103;51.014;16.992;2023-04-22T11:49:12;9.90;;;3.80;;
72198;SDS011;60103;51.014;16.992;2023-04-22T11:51:55;8.70;;;3.50;;
72198;SDS011;60103;51.014;16.992;2023-04-22T11:54:31;9.90;;;3.70;;
72198;SDS011;60103;51.014;16.992;2023-04-22T11:57:05;8.60;;;3.80;;
72198;SDS011;60103;51.014;16.992;2023-04-22T11:59:35;11.00;;;4.00;;
72198;SDS011;60103;51.014;16.992;2023-04-22T12:02:05;9.10;;;3.40;;
72198;SDS011;60103;51.014;16.992;2023-04-22T12:04:37;11.40;;;3.70;;
72198;SDS011;60103;51.014;16.992;2023-04-22T12:07:08;8.50;;;3.80;;
72198;SDS011;60103;51.014;16.992;2023-04-22T12:09:37;10.50;;;4.00;;
72198;SDS011;60103;51.014;16.992;2023-04-22T12:12:12;8.80;;;3.40;;
72198;SDS011;60103;51.014;16.992;2023-04-22T12:14:44;12.10;;;3.60;;
72198;SDS011;60103;51.014;16.992;2023-04-22T12:17:13;8.80;;;3.50;;
72198;SDS011;60103;51.014;16.992;2023-04-22T12:19:46;8.30;;;3.70;;
72198;SDS011;60103;51.014;16.992;2023-04-22T12:22:25;9.80;;;3.80;;
72198;SDS011;60103;51.014;16.992;2023-04-22T12:24:58;8.10;;;3.40;;
72198;SDS011;60103;51.014;16.992;2023-04-22T12:27:27;8.80;;;3.70;;
72198;SDS011;60103;51.014;16.992;2023-04-22T12:29:58;8.30;;;3.10;;
72198;SDS011;60103;51.014;16.992;2023-04-22T12:32:27;9.50;;;3.40;;
72198;SDS011;60103;51.014;16.992;2023-04-22T12:34:57;8.50;;;3.60;;
72198;SDS011;60103;51.014;16.992;2023-04-22T12:37:26;7.30;;;2.80;;
72198;SDS011;60103;51.014;16.992;2023-04-22T12:39:55;7.90;;;3.10;;
72198;SDS011;60103;51.014;16.992;2023-04-22T12:42:25;8.90;;;2.90;;
72198;SDS011;60103;51.014;16.992;2023-04-22T12:44:54;8.70;;;3.70;;
72198;SDS011;60103;51.014;16.992;2023-04-22T12:47:23;8.10;;;3.00;;
72198;SDS011;60103;51.014;16.992;2023-04-22T12:49:52;8.60;;;3.30;;
72198;SDS011;60103;51.014;16.992;2023-04-22T12:52:21;8.50;;;2.90;;
72198;SDS011;60103;51.014;16.992;2023-04-22T12:54:50;8.00;;;3.10;;
72198;SDS011;60103;51.014;16.992;2023-04-22T12:57:19;8.40;;;3.60;;
72198;SDS011;60103;51.014;16.992;2023-04-22T12:59:48;7.90;;;3.00;;
72198;SDS011;60103;51.014;16.992;2023-04-22T13:02:18;8.00;;;3.30;;
72198;SDS011;60103;51.014;16.992;2023-04-22T13:04:47;8.30;;;3.10;;
72198;SDS011;60103;51.014;16.992;2023-04-22T13:07:16;8.20;;;3.00;;
72198;SDS011;60103;51.014;16.992;2023-04-22T13:09:45;9.00;;;3.60;;
72198;SDS011;60103;51.014;16.992;2023-04-22T13:12:14;8.00;;;3.30;;
72198;SDS011;60103;51.014;16.992;2023-04-22T13:14:42;8.90;;;3.30;;
72198;SDS011;60103;51.014;16.992;2023-04-22T13:17:11;9.80;;;3.70;;
72198;SDS011;60103;51.014;16.992;2023-04-22T13:19:40;10.00;;;3.10;;
72198;SDS011;60103;51.014;16.992;2023-04-22T13:22:09;7.10;;;3.10;;
72198;SDS011;60103;51.014;16.992;2023-04-22T13:24:38;7.90;;;3.20;;
72198;SDS011;60103;51.014;16.992;2023-04-22T13:27:07;7.80;;;3.20;;
72198;SDS011;60103;51.014;16.992;2023-04-22T13:29:36;8.90;;;3.10;;
72198;SDS011;60103;51.014;16.992;2023-04-22T13:32:06;8.20;;;3.00;;
72198;SDS011;60103;51.014;16.992;2023-04-22T13:34:36;9.70;;;3.50;;
72198;SDS011;60103;51.014;16.992;2023-04-22T13:37:06;8.60;;;3.60;;
72198;SDS011;60103;51.014;16.992;2023-04-22T13:39:36;8.50;;;3.50;;
72198;SDS011;60103;51.014;16.992;2023-04-22T13:42:06;8.50;;;3.40;;
72198;SDS011;60103;51.014;16.992;2023-04-22T13:44:35;9.10;;;3.50;;
72198;SDS011;60103;51.014;16.992;2023-04-22T13:47:04;8.30;;;3.20;;
72198;SDS011;60103;51.014;16.992;2023-04-22T13:49:33;9.20;;;3.60;;
72198;SDS011;60103;51.014;16.992;2023-04-22T13:52:02;8.40;;;3.20;;
72198;SDS011;60103;51.014;16.992;2023-04-22T13:54:31;9.20;;;3.40;;
72198;SDS011;60103;51.014;16.992;2023-04-22T13:57:00;8.20;;;2.90;;
72198;SDS011;60103;51.014;16.992;2023-04-22T13:59:30;8.40;;;3.30;;
72198;SDS011;60103;51.014;16.992;2023-04-22T14:01:59;9.60;;;3.40;;
72198;SDS011;60103;51.014;16.992;2023-04-22T14:04:28;12.90;;;6.50;;
72198;SDS011;60103;51.014;16.992;2023-04-22T14:06:57;9.40;;;4.20;;
72198;SDS011;60103;51.014;16.992;2023-04-22T14:09:26;10.60;;;3.20;;
72198;SDS011;60103;51.014;16.992;2023-04-22T14:11:55;9.10;;;3.50;;
72198;SDS011;60103;51.014;16.992;2023-04-22T14:14:24;9.40;;;3.70;;
72198;SDS011;60103;51.014;16.992;2023-04-22T14:16:53;9.70;;;4.00;;
72198;SDS011;60103;51.014;16.992;2023-04-22T14:19:22;9.50;;;4.10;;
72198;SDS011;60103;51.014;16.992;2023-04-22T14:21:52;9.40;;;3.20;;
72198;SDS011;60103;51.014;16.992;2023-04-22T14:24:21;10.60;;;3.80;;
72198;SDS011;60103;51.014;16.992;2023-04-22T14:26:51;9.80;;;3.50;;
72198;SDS011;60103;51.014;16.992;2023-04-22T14:29:20;8.20;;;3.40;;
72198;SDS011;60103;51.014;16.992;2023-04-22T14:31:49;8.60;;;3.90;;
72198;SDS011;60103;51.014;16.992;2023-04-22T14:34:18;10.50;;;3.40;;
72198;SDS011;60103;51.014;16.992;2023-04-22T14:36:46;8.70;;;3.30;;
72198;SDS011;60103;51.014;16.992;2023-04-22T14:39:15;8.10;;;3.00;;
72198;SDS011;60103;51.014;16.992;2023-04-22T14:41:44;10.70;;;3.50;;
72198;SDS011;60103;51.014;16.992;2023-04-22T14:44:13;10.60;;;3.10;;
72198;SDS011;60103;51.014;16.992;2023-04-22T14:46:42;9.70;;;3.50;;